createdAt,value
2019-03-06T00:00:33.566Z,82.76
2019-03-06T00:01:35.608Z,84.73
2019-03-06T00:02:33.403Z,83.80
2019-03-06T00:03:33.413Z,85.72
2019-03-06T00:04:33.382Z,85.52
2019-03-06T00:05:33.389Z,86.34
2019-03-06T00:06:33.371Z,86.44
2019-03-06T00:07:33.349Z,85.52
2019-03-06T00:08:33.355Z,85.86
2019-03-06T00:09:33.412Z,85.83
2019-03-06T00:10:33.316Z,87.07
2019-03-06T00:11:33.303Z,85.72
2019-03-06T00:12:40.355Z,87.07
2019-03-06T00:13:33.306Z,87.37
2019-03-06T00:14:33.277Z,85.21
2019-03-06T00:15:33.281Z,86.24
2019-03-06T00:16:33.256Z,85.31
2019-03-06T00:17:33.247Z,84.79
2019-03-06T00:18:33.253Z,86.76
2019-03-06T00:19:33.220Z,87.07
2019-03-06T00:20:33.782Z,86.03
2019-03-06T00:21:33.205Z,87.48
2019-03-06T00:22:33.190Z,87.58
2019-03-06T00:23:33.223Z,87.17
2019-03-06T00:24:33.174Z,86.13
2019-03-06T00:25:33.159Z,85.00
2019-03-06T00:26:33.149Z,85.41
2019-03-06T00:27:33.138Z,86.41
2019-03-06T00:28:33.129Z,87.48
2019-03-06T00:29:33.139Z,88.41
2019-03-06T00:30:33.110Z,87.68
2019-03-06T00:31:33.095Z,86.34
2019-03-06T00:32:33.084Z,85.72
2019-03-06T00:33:33.152Z,87.48
2019-03-06T00:34:33.081Z,88.51
2019-03-06T00:35:33.060Z,88.06
2019-03-06T00:36:33.050Z,87.02
2019-03-06T00:37:33.032Z,88.37
2019-03-06T00:38:33.022Z,88.89
2019-03-06T00:39:33.046Z,89.19
2019-03-06T00:40:33.003Z,88.47
2019-03-06T00:41:32.994Z,89.13
2019-03-06T00:42:33.023Z,87.07
2019-03-06T00:43:32.972Z,87.27
2019-03-06T00:44:32.960Z,89.44
2019-03-06T00:45:32.969Z,87.89
2019-03-06T00:46:32.943Z,89.92
2019-03-06T00:47:32.929Z,90.33
2019-03-06T00:48:32.936Z,89.92
2019-03-06T00:49:32.906Z,90.22
2019-03-06T00:50:32.916Z,90.22
2019-03-06T00:51:32.914Z,90.02
2019-03-06T00:52:32.900Z,91.26
2019-03-06T00:53:32.863Z,90.22
2019-03-06T00:54:32.855Z,90.64
2019-03-06T00:55:32.922Z,90.95
2019-03-06T00:56:32.833Z,90.33
2019-03-06T00:57:32.833Z,90.84
2019-03-06T00:58:32.814Z,88.92
2019-03-06T00:59:32.801Z,87.23
2019-03-06T01:00:32.876Z,88.37
2019-03-06T01:01:32.794Z,88.78
2019-03-06T01:02:32.769Z,86.82
2019-03-06T01:03:32.760Z,89.50
2019-03-06T01:04:33.323Z,89.92
2019-03-06T01:05:32.857Z,88.37
2019-03-06T01:06:32.731Z,88.57
2019-03-06T01:07:32.720Z,90.64
2019-03-06T01:08:32.726Z,89.29
2019-03-06T01:09:32.697Z,88.89
2019-03-06T01:10:32.703Z,88.47
2019-03-06T01:11:32.716Z,88.98
2019-03-06T01:12:32.667Z,89.81
2019-03-06T01:13:32.716Z,86.92
2019-03-06T01:14:32.648Z,88.98
2019-03-06T01:15:32.687Z,90.22
2019-03-06T01:16:32.630Z,90.43
2019-03-06T01:17:32.620Z,90.53
2019-03-06T01:18:32.605Z,90.28
2019-03-06T01:19:32.624Z,89.19
2019-03-06T01:20:32.628Z,89.81
2019-03-06T01:21:32.616Z,88.98
2019-03-06T01:22:32.564Z,87.95
2019-03-06T01:23:33.327Z,87.71
2019-03-06T01:24:32.546Z,89.50
2019-03-06T01:25:32.534Z,89.19
2019-03-06T01:26:32.582Z,88.89
2019-03-06T01:27:32.512Z,90.28
2019-03-06T01:28:32.502Z,91.05
2019-03-06T01:29:32.540Z,90.49
2019-03-06T01:30:32.481Z,90.39
2019-03-06T01:31:32.488Z,88.32
2019-03-06T01:32:32.472Z,89.25
2019-03-06T01:33:32.453Z,90.19
2019-03-06T01:34:32.452Z,89.67
2019-03-06T01:35:32.436Z,89.15
2019-03-06T01:36:32.530Z,87.71
2019-03-06T01:37:32.406Z,89.71
2019-03-06T01:38:32.394Z,89.40
2019-03-06T01:39:32.445Z,90.70
2019-03-06T01:40:32.372Z,91.01
2019-03-06T01:41:32.368Z,90.64
2019-03-06T01:42:32.374Z,90.12
2019-03-06T01:43:32.343Z,90.80
2019-03-06T01:44:32.330Z,90.91
2019-03-06T01:45:32.387Z,88.12
2019-03-06T01:46:32.312Z,89.50
2019-03-06T01:47:32.343Z,89.67
2019-03-06T01:48:32.319Z,90.91
2019-03-06T01:49:32.279Z,90.70
2019-03-06T01:50:32.273Z,90.12
2019-03-06T01:51:32.260Z,90.19
2019-03-06T01:52:32.277Z,89.67
2019-03-06T01:53:32.238Z,89.19
2019-03-06T01:54:32.226Z,87.40
2019-03-06T01:55:32.214Z,88.26
2019-03-06T01:56:32.206Z,86.82
2019-03-06T01:57:32.404Z,90.59
2019-03-06T01:58:32.198Z,90.80
2019-03-06T01:59:32.183Z,89.15
2019-03-06T02:00:32.162Z,90.80
2019-03-06T02:01:32.176Z,90.28
2019-03-06T02:02:32.145Z,91.01
2019-03-06T02:03:32.155Z,90.19
2019-03-06T02:04:32.123Z,90.80
2019-03-06T02:05:32.123Z,91.52
2019-03-06T02:06:32.108Z,90.91
2019-03-06T02:07:32.112Z,89.98
2019-03-06T02:08:32.112Z,90.91
2019-03-06T02:09:32.105Z,91.63
2019-03-06T02:10:32.099Z,91.63
2019-03-06T02:11:32.049Z,90.70
2019-03-06T02:12:32.069Z,90.70
2019-03-06T02:13:32.064Z,90.70
2019-03-06T02:14:32.019Z,90.39
2019-03-06T02:15:32.017Z,91.52
2019-03-06T02:16:32.028Z,90.49
2019-03-06T02:17:31.993Z,89.67
2019-03-06T02:18:31.996Z,89.77
2019-03-06T02:19:31.962Z,89.25
2019-03-06T02:20:31.951Z,88.84
2019-03-06T02:21:31.941Z,89.98
2019-03-06T02:22:31.934Z,89.92
2019-03-06T02:23:31.944Z,91.01
2019-03-06T02:24:31.915Z,89.25
2019-03-06T02:25:31.902Z,90.80
2019-03-06T02:26:31.890Z,90.08
2019-03-06T02:27:31.887Z,90.19
2019-03-06T02:28:31.887Z,87.19
2019-03-06T02:29:31.857Z,90.39
2019-03-06T02:30:31.848Z,91.01
2019-03-06T02:31:31.838Z,90.39
2019-03-06T02:32:31.861Z,89.98
2019-03-06T02:33:31.839Z,89.25
2019-03-06T02:34:31.805Z,89.05
2019-03-06T02:35:31.799Z,91.01
2019-03-06T02:36:31.788Z,91.11
2019-03-06T02:37:31.822Z,90.59
2019-03-06T02:38:31.793Z,91.32
2019-03-06T02:39:31.790Z,92.08
2019-03-06T02:40:31.746Z,92.25
2019-03-06T02:41:31.750Z,91.01
2019-03-06T02:42:31.725Z,91.56
2019-03-06T02:43:31.726Z,92.04
2019-03-06T02:44:31.753Z,91.77
2019-03-06T02:45:31.696Z,92.19
2019-03-06T02:46:31.683Z,91.52
2019-03-06T02:47:31.685Z,91.63
2019-03-06T02:48:31.662Z,91.83
2019-03-06T02:49:31.688Z,92.19
2019-03-06T02:50:31.637Z,92.08
2019-03-06T02:51:31.636Z,91.42
2019-03-06T02:52:31.650Z,91.63
2019-03-06T02:53:31.625Z,91.88
2019-03-06T02:54:31.663Z,91.36
2019-03-06T02:55:31.597Z,90.28
2019-03-06T02:56:31.576Z,91.98
2019-03-06T02:57:31.567Z,91.32
2019-03-06T02:58:31.558Z,91.36
2019-03-06T02:59:31.569Z,92.04
2019-03-06T03:00:31.538Z,90.84
2019-03-06T03:01:31.538Z,87.50
2019-03-06T03:02:31.515Z,90.84
2019-03-06T03:03:31.505Z,91.98
2019-03-06T03:04:31.512Z,92.25
2019-03-06T03:05:31.483Z,92.40
2019-03-06T03:06:31.504Z,92.50
2019-03-06T03:07:31.474Z,92.08
2019-03-06T03:08:31.449Z,92.14
2019-03-06T03:09:31.467Z,91.77
2019-03-06T03:10:31.440Z,91.46
2019-03-06T03:11:31.426Z,91.56
2019-03-06T03:12:31.412Z,92.29
2019-03-06T03:13:31.402Z,90.49
2019-03-06T03:14:31.436Z,91.26
2019-03-06T03:15:31.376Z,92.60
2019-03-06T03:16:31.369Z,92.29
2019-03-06T03:17:31.357Z,91.98
2019-03-06T03:18:31.403Z,91.63
2019-03-06T03:19:31.353Z,90.80
2019-03-06T03:20:31.331Z,91.67
2019-03-06T03:21:31.315Z,92.14
2019-03-06T03:22:31.307Z,90.19
2019-03-06T03:23:31.319Z,89.77
2019-03-06T03:24:31.308Z,91.77
2019-03-06T03:25:31.277Z,91.83
2019-03-06T03:26:31.265Z,91.46
2019-03-06T03:27:31.313Z,92.14
2019-03-06T03:28:31.240Z,91.52
2019-03-06T03:29:31.278Z,91.01
2019-03-06T03:30:31.231Z,91.22
2019-03-06T03:31:31.233Z,89.67
2019-03-06T03:32:31.206Z,91.94
2019-03-06T03:33:31.189Z,87.71
2019-03-06T03:34:31.185Z,90.19
2019-03-06T03:35:31.198Z,92.14
2019-03-06T03:36:31.158Z,89.87
2019-03-06T03:37:31.169Z,90.59
2019-03-06T03:38:31.143Z,90.19
2019-03-06T03:39:31.163Z,89.05
2019-03-06T03:40:31.143Z,91.01
2019-03-06T03:41:31.106Z,87.40
2019-03-06T03:42:31.103Z,90.49
2019-03-06T03:43:31.093Z,91.94
2019-03-06T03:44:31.077Z,90.49
2019-03-06T03:45:31.087Z,90.45
2019-03-06T03:46:31.055Z,91.11
2019-03-06T03:47:31.055Z,91.94
2019-03-06T03:48:31.032Z,91.42
2019-03-06T03:49:31.042Z,91.63
2019-03-06T03:50:31.045Z,91.32
2019-03-06T03:51:30.998Z,89.25
2019-03-06T03:52:30.996Z,90.04
2019-03-06T03:53:30.985Z,91.22
2019-03-06T03:54:30.990Z,92.00
2019-03-06T03:55:31.005Z,90.35
2019-03-06T03:56:30.988Z,91.79
2019-03-06T03:57:30.944Z,91.17
2019-03-06T03:58:30.954Z,92.00
2019-03-06T03:59:30.921Z,91.89
2019-03-06T04:00:30.925Z,92.14
2019-03-06T04:01:30.915Z,91.38
2019-03-06T04:02:30.888Z,91.42
2019-03-06T04:03:30.895Z,92.31
2019-03-06T04:04:30.866Z,92.25
2019-03-06T04:05:30.855Z,90.59
2019-03-06T04:06:30.869Z,91.79
2019-03-06T04:07:30.838Z,91.01
2019-03-06T04:08:30.826Z,90.80
2019-03-06T04:09:30.820Z,89.67
2019-03-06T04:10:30.808Z,91.42
2019-03-06T04:11:31.415Z,92.31
2019-03-06T04:12:30.781Z,91.94
2019-03-06T04:13:30.777Z,91.83
2019-03-06T04:14:30.791Z,91.83
2019-03-06T04:15:30.778Z,92.04
2019-03-06T04:16:30.747Z,91.11
2019-03-06T04:17:30.753Z,92.10
2019-03-06T04:18:30.726Z,91.83
2019-03-06T04:19:30.736Z,92.04
2019-03-06T04:20:30.727Z,89.77
2019-03-06T04:21:30.707Z,90.19
2019-03-06T04:22:30.693Z,90.66
2019-03-06T04:23:30.673Z,89.46
2019-03-06T04:24:30.655Z,92.00
2019-03-06T04:25:30.657Z,90.66
2019-03-06T04:26:30.655Z,91.73
2019-03-06T04:27:30.655Z,91.17
2019-03-06T04:28:30.617Z,89.01
2019-03-06T04:29:30.647Z,90.86
2019-03-06T04:30:30.593Z,92.10
2019-03-06T04:31:30.586Z,92.00
2019-03-06T04:32:30.593Z,90.97
2019-03-06T04:33:30.571Z,91.17
2019-03-06T04:34:30.557Z,91.17
2019-03-06T04:35:30.549Z,91.48
2019-03-06T04:36:30.529Z,92.00
2019-03-06T04:37:30.541Z,90.76
2019-03-06T04:38:30.523Z,91.28
2019-03-06T04:39:30.497Z,90.14
2019-03-06T04:40:30.492Z,90.76
2019-03-06T04:41:30.476Z,90.66
2019-03-06T04:42:30.499Z,91.38
2019-03-06T04:43:30.479Z,92.00
2019-03-06T04:44:30.442Z,89.83
2019-03-06T04:45:30.464Z,92.10
2019-03-06T04:46:30.423Z,90.14
2019-03-06T04:47:30.438Z,91.48
2019-03-06T04:48:30.405Z,90.76
2019-03-06T04:49:30.397Z,91.07
2019-03-06T04:50:30.412Z,91.28
2019-03-06T04:51:30.386Z,91.89
2019-03-06T04:52:30.357Z,91.34
2019-03-06T04:53:30.369Z,90.97
2019-03-06T04:54:30.343Z,92.31
2019-03-06T04:55:30.342Z,91.07
2019-03-06T04:56:30.332Z,90.45
2019-03-06T04:57:30.305Z,91.24
2019-03-06T04:58:30.320Z,90.25
2019-03-06T04:59:30.285Z,90.41
2019-03-06T05:00:30.283Z,89.07
2019-03-06T05:01:30.270Z,90.61
2019-03-06T05:02:30.263Z,90.61
2019-03-06T05:03:30.271Z,89.73
2019-03-06T05:04:30.283Z,87.77
2019-03-06T05:05:30.225Z,89.17
2019-03-06T05:06:30.217Z,91.07
2019-03-06T05:07:30.209Z,90.92
2019-03-06T05:08:30.211Z,90.41
2019-03-06T05:09:30.183Z,89.69
2019-03-06T05:10:30.171Z,89.48
2019-03-06T05:11:30.159Z,89.79
2019-03-06T05:12:30.156Z,89.69
2019-03-06T05:13:30.164Z,90.31
2019-03-06T05:14:30.160Z,90.72
2019-03-06T05:15:30.129Z,90.97
2019-03-06T05:16:30.107Z,90.82
2019-03-06T05:17:30.112Z,90.25
2019-03-06T05:18:30.120Z,89.11
2019-03-06T05:19:30.103Z,90.25
2019-03-06T05:20:30.076Z,89.73
2019-03-06T05:21:30.065Z,90.86
2019-03-06T05:22:30.051Z,90.86
2019-03-06T05:23:30.082Z,90.55
2019-03-06T05:24:30.028Z,90.55
2019-03-06T05:25:30.014Z,89.73
2019-03-06T05:26:30.006Z,91.17
2019-03-06T05:27:29.994Z,90.97
2019-03-06T05:28:29.985Z,90.04
2019-03-06T05:29:29.995Z,90.59
2019-03-06T05:30:29.968Z,91.11
2019-03-06T05:31:29.952Z,90.14
2019-03-06T05:32:29.948Z,90.28
2019-03-06T05:33:29.930Z,90.91
2019-03-06T05:34:29.943Z,90.25
2019-03-06T05:35:29.910Z,90.97
2019-03-06T05:36:29.902Z,90.35
2019-03-06T05:37:29.890Z,90.35
2019-03-06T05:38:29.878Z,90.76
2019-03-06T05:39:29.893Z,89.83
2019-03-06T05:40:29.854Z,90.08
2019-03-06T05:41:29.847Z,89.62
2019-03-06T05:42:29.835Z,89.22
2019-03-06T05:43:29.836Z,89.46
2019-03-06T05:44:29.836Z,89.87
2019-03-06T05:45:29.806Z,88.70
2019-03-06T05:46:29.798Z,90.14
2019-03-06T05:47:29.781Z,89.62
2019-03-06T05:48:29.772Z,90.86
2019-03-06T05:49:29.790Z,90.55
2019-03-06T05:50:29.762Z,91.07
2019-03-06T05:51:29.745Z,90.76
2019-03-06T05:52:29.735Z,91.17
2019-03-06T05:53:29.729Z,90.76
2019-03-06T05:54:29.714Z,90.70
2019-03-06T05:55:29.718Z,89.73
2019-03-06T05:56:29.692Z,90.49
2019-03-06T05:57:29.681Z,90.45
2019-03-06T05:58:29.673Z,89.62
2019-03-06T05:59:29.683Z,90.55
2019-03-06T06:00:29.680Z,91.52
2019-03-06T06:01:29.636Z,90.28
2019-03-06T06:02:29.629Z,91.38
2019-03-06T06:03:29.618Z,90.86
2019-03-06T06:04:29.609Z,91.17
2019-03-06T06:05:29.638Z,90.55
2019-03-06T06:06:29.591Z,90.76
2019-03-06T06:07:29.577Z,91.07
2019-03-06T06:08:29.567Z,90.97
2019-03-06T06:09:29.558Z,91.07
2019-03-06T06:10:29.563Z,91.28
2019-03-06T06:11:29.534Z,90.76
2019-03-06T06:12:37.065Z,89.73
2019-03-06T06:13:31.044Z,91.17
2019-03-06T06:14:29.506Z,89.01
2019-03-06T06:15:29.510Z,90.66
2019-03-06T06:16:29.480Z,91.28
2019-03-06T06:17:29.474Z,88.18
2019-03-06T06:18:29.460Z,90.04
2019-03-06T06:19:29.459Z,89.22
2019-03-06T06:20:29.462Z,90.14
2019-03-06T06:21:29.450Z,90.55
2019-03-06T06:22:29.417Z,90.45
2019-03-06T06:23:29.425Z,89.83
2019-03-06T06:24:29.403Z,89.83
2019-03-06T06:25:29.410Z,88.39
2019-03-06T06:26:29.378Z,90.04
2019-03-06T06:27:29.367Z,90.25
2019-03-06T06:28:29.372Z,87.66
2019-03-06T06:29:29.352Z,89.94
2019-03-06T06:30:29.339Z,89.94
2019-03-06T06:31:29.352Z,89.83
2019-03-06T06:32:29.322Z,90.35
2019-03-06T06:33:29.310Z,90.45
2019-03-06T06:34:29.305Z,90.14
2019-03-06T06:35:29.311Z,90.55
2019-03-06T06:36:29.302Z,89.62
2019-03-06T06:37:29.267Z,90.20
2019-03-06T06:38:29.257Z,90.10
2019-03-06T06:39:29.880Z,90.14
2019-03-06T06:40:29.230Z,89.01
2019-03-06T06:41:29.245Z,89.69
2019-03-06T06:42:29.215Z,89.94
2019-03-06T06:43:29.210Z,89.11
2019-03-06T06:44:29.195Z,89.11
2019-03-06T06:45:29.175Z,89.69
2019-03-06T06:46:29.219Z,87.66
2019-03-06T06:47:29.162Z,89.11
2019-03-06T06:48:29.150Z,88.39
2019-03-06T06:49:29.145Z,89.01
2019-03-06T06:50:29.127Z,88.08
2019-03-06T06:51:29.140Z,88.90
2019-03-06T06:52:29.105Z,89.22
2019-03-06T06:53:29.117Z,88.39
2019-03-06T06:54:29.087Z,89.38
2019-03-06T06:55:29.085Z,88.04
2019-03-06T06:56:29.085Z,89.11
2019-03-06T06:57:29.055Z,88.65
2019-03-06T06:58:31.571Z,88.45
2019-03-06T06:59:29.034Z,88.96
2019-03-06T07:00:29.021Z,89.01
2019-03-06T07:01:29.032Z,89.07
2019-03-06T07:02:29.013Z,88.24
2019-03-06T07:03:28.987Z,87.73
2019-03-06T07:04:28.990Z,87.73
2019-03-06T07:05:28.968Z,88.65
2019-03-06T07:06:29.000Z,87.01
2019-03-06T07:07:28.964Z,88.14
2019-03-06T07:08:28.938Z,87.83
2019-03-06T07:09:28.926Z,87.73
2019-03-06T07:10:28.918Z,87.83
2019-03-06T07:11:28.903Z,88.20
2019-03-06T07:12:28.921Z,87.73
2019-03-06T07:13:28.887Z,87.27
2019-03-06T07:14:28.885Z,87.73
2019-03-06T07:15:28.861Z,88.14
2019-03-06T07:16:28.854Z,88.35
2019-03-06T07:17:28.861Z,87.01
2019-03-06T07:18:28.836Z,86.97
2019-03-06T07:19:28.823Z,87.07
2019-03-06T07:20:28.810Z,87.63
2019-03-06T07:21:28.804Z,86.87
2019-03-06T07:22:28.812Z,86.76
2019-03-06T07:23:28.788Z,87.21
2019-03-06T07:24:28.767Z,86.80
2019-03-06T07:25:28.758Z,85.87
2019-03-06T07:26:28.750Z,86.97
2019-03-06T07:27:28.761Z,86.87
2019-03-06T07:28:28.727Z,86.87
2019-03-06T07:29:28.718Z,86.87
2019-03-06T07:30:28.705Z,86.87
2019-03-06T07:31:28.703Z,85.73
2019-03-06T07:32:28.690Z,86.15
2019-03-06T07:33:28.698Z,86.04
2019-03-06T07:34:28.672Z,87.01
2019-03-06T07:35:28.654Z,87.27
2019-03-06T07:36:28.643Z,87.59
2019-03-06T07:37:29.031Z,85.83
2019-03-06T07:38:28.648Z,86.24
2019-03-06T07:39:28.612Z,86.15
2019-03-06T07:40:28.601Z,86.24
2019-03-06T07:41:28.610Z,84.80
2019-03-06T07:42:28.582Z,86.97
2019-03-06T07:43:28.620Z,85.52
2019-03-06T07:44:30.430Z,85.73
2019-03-06T07:45:28.554Z,85.31
2019-03-06T07:46:28.540Z,85.31
2019-03-06T07:47:28.529Z,85.22
2019-03-06T07:48:28.521Z,86.10
2019-03-06T07:49:28.543Z,85.11
2019-03-06T07:50:28.510Z,85.28
2019-03-06T07:51:28.485Z,85.49
2019-03-06T07:52:28.480Z,86.10
2019-03-06T07:53:28.466Z,85.28
2019-03-06T07:54:29.458Z,85.07
2019-03-06T07:55:28.442Z,84.56
2019-03-06T07:56:28.442Z,83.53
2019-03-06T07:57:28.428Z,85.49
2019-03-06T07:58:28.411Z,84.77
2019-03-06T07:59:28.472Z,84.97
2019-03-06T08:00:28.404Z,84.97
2019-03-06T08:01:28.382Z,85.17
2019-03-06T08:02:28.367Z,84.35
2019-03-06T08:03:28.361Z,84.97
2019-03-06T08:04:28.370Z,85.07
2019-03-06T08:05:28.342Z,85.17
2019-03-06T08:06:28.332Z,83.53
2019-03-06T08:07:28.327Z,85.34
2019-03-06T08:08:28.306Z,85.14
2019-03-06T08:09:28.312Z,83.39
2019-03-06T08:10:28.296Z,84.72
2019-03-06T08:11:28.276Z,85.34
2019-03-06T08:12:28.268Z,84.52
2019-03-06T08:13:28.253Z,84.83
2019-03-06T08:14:28.269Z,84.72
2019-03-06T08:15:28.269Z,83.49
2019-03-06T08:16:28.226Z,84.72
2019-03-06T08:17:28.222Z,84.52
2019-03-06T08:18:28.220Z,83.59
2019-03-06T08:19:28.191Z,84.00
2019-03-06T08:20:28.206Z,83.35
2019-03-06T08:21:28.180Z,83.55
2019-03-06T08:22:28.165Z,83.86
2019-03-06T08:23:28.154Z,83.65
2019-03-06T08:24:28.143Z,83.65
2019-03-06T08:25:28.150Z,83.14
2019-03-06T08:26:28.120Z,82.83
2019-03-06T08:27:28.109Z,83.45
2019-03-06T08:28:28.100Z,81.91
2019-03-06T08:29:28.095Z,81.97
2019-03-06T08:30:28.104Z,81.87
2019-03-06T08:31:28.069Z,81.97
2019-03-06T08:32:28.058Z,81.87
2019-03-06T08:33:28.050Z,80.84
2019-03-06T08:34:28.037Z,81.56
2019-03-06T08:35:28.046Z,80.74
2019-03-06T08:36:28.033Z,81.35
2019-03-06T08:37:28.004Z,80.91
2019-03-06T08:38:28.000Z,80.19
2019-03-06T08:39:27.983Z,79.47
2019-03-06T08:40:27.972Z,78.71
2019-03-06T08:41:27.984Z,78.50
2019-03-06T08:42:27.955Z,78.92
2019-03-06T08:43:27.946Z,78.61
2019-03-06T08:44:27.930Z,76.55
2019-03-06T08:45:27.926Z,78.50
2019-03-06T08:46:27.934Z,79.12
2019-03-06T08:47:27.923Z,79.53
2019-03-06T08:48:27.888Z,77.68
2019-03-06T08:49:27.881Z,77.27
2019-03-06T08:50:27.869Z,78.36
2019-03-06T08:51:27.882Z,78.16
2019-03-06T08:52:27.847Z,78.27
2019-03-06T08:53:27.839Z,76.93
2019-03-06T08:54:27.838Z,76.72
2019-03-06T08:55:27.813Z,76.82
2019-03-06T08:56:27.847Z,76.28
2019-03-06T08:57:27.798Z,77.00
2019-03-06T08:58:27.787Z,77.10
2019-03-06T08:59:27.777Z,77.23
2019-03-06T09:00:27.765Z,77.34
2019-03-06T09:01:27.776Z,75.35
2019-03-06T09:02:27.742Z,76.28
2019-03-06T09:03:27.776Z,75.56
2019-03-06T09:04:27.774Z,75.97
2019-03-06T09:05:27.736Z,76.38
2019-03-06T09:06:27.713Z,76.28
2019-03-06T09:07:27.706Z,75.66
2019-03-06T09:08:27.682Z,75.62
2019-03-06T09:09:27.668Z,75.01
2019-03-06T09:10:27.659Z,74.60
2019-03-06T09:11:27.650Z,75.11
2019-03-06T09:12:27.656Z,74.91
2019-03-06T09:13:27.629Z,74.29
2019-03-06T09:14:27.616Z,73.74
2019-03-06T09:15:27.604Z,72.20
2019-03-06T09:16:27.605Z,73.02
2019-03-06T09:17:27.606Z,73.13
2019-03-06T09:18:27.575Z,73.10
2019-03-06T09:19:27.587Z,72.07
2019-03-06T09:20:35.405Z,72.03
2019-03-06T09:21:28.544Z,72.27
2019-03-06T09:22:27.557Z,71.22
2019-03-06T09:23:27.524Z,72.17
2019-03-06T09:24:27.512Z,71.52
2019-03-06T09:25:27.500Z,70.73
2019-03-06T09:26:27.492Z,70.19
2019-03-06T09:27:27.502Z,70.19
2019-03-06T09:28:27.465Z,70.91
2019-03-06T09:29:27.459Z,71.42
2019-03-06T09:30:27.447Z,70.94
2019-03-06T09:31:27.439Z,70.84
2019-03-06T09:32:27.448Z,69.78
2019-03-06T09:33:27.425Z,70.94
2019-03-06T09:34:28.279Z,71.45
2019-03-06T09:35:27.402Z,69.98
2019-03-06T09:36:27.381Z,70.94
2019-03-06T09:37:27.411Z,70.60
2019-03-06T09:38:27.364Z,69.98
2019-03-06T09:39:27.351Z,70.91
2019-03-06T09:40:27.340Z,69.98
2019-03-06T09:41:27.333Z,69.47
2019-03-06T09:42:27.325Z,68.52
2019-03-06T09:43:27.330Z,69.68
2019-03-06T09:44:27.303Z,69.98
2019-03-06T09:45:27.286Z,69.37
2019-03-06T09:46:27.279Z,69.57
2019-03-06T09:47:27.266Z,69.37
2019-03-06T09:48:27.293Z,69.54
2019-03-06T09:49:27.248Z,69.85
2019-03-06T09:50:27.244Z,68.62
2019-03-06T09:51:27.221Z,69.31
2019-03-06T09:52:27.208Z,67.67
2019-03-06T09:53:27.245Z,68.69
2019-03-06T09:54:27.194Z,69.41
2019-03-06T09:55:27.192Z,68.62
2019-03-06T09:56:27.167Z,69.10
2019-03-06T09:57:27.157Z,67.97
2019-03-06T09:58:27.215Z,67.77
2019-03-06T09:59:27.137Z,67.77
2019-03-06T10:00:27.131Z,69.10
2019-03-06T10:01:27.120Z,69.31
2019-03-06T10:02:27.105Z,69.75
2019-03-06T10:03:27.489Z,69.61
2019-03-06T10:04:27.089Z,68.83
2019-03-06T10:05:27.074Z,68.18
2019-03-06T10:06:27.070Z,68.79
2019-03-06T10:07:27.056Z,68.59
2019-03-06T10:08:27.061Z,69.51
2019-03-06T10:09:27.039Z,70.23
2019-03-06T10:10:27.018Z,68.69
2019-03-06T10:11:27.012Z,68.90
2019-03-06T10:12:27.003Z,68.38
2019-03-06T10:13:27.038Z,69.79
2019-03-06T10:14:26.978Z,69.27
2019-03-06T10:15:26.973Z,67.97
2019-03-06T10:16:26.957Z,67.54
2019-03-06T10:17:26.951Z,68.46
2019-03-06T10:18:26.982Z,67.94
2019-03-06T10:19:26.952Z,67.74
2019-03-06T10:20:26.918Z,68.05
2019-03-06T10:21:26.907Z,68.55
2019-03-06T10:22:26.901Z,69.89
2019-03-06T10:23:26.886Z,67.84
2019-03-06T10:24:26.894Z,67.71
2019-03-06T10:25:30.333Z,66.28
2019-03-06T10:26:28.912Z,67.71
2019-03-06T10:27:26.839Z,68.12
2019-03-06T10:28:27.975Z,68.12
2019-03-06T10:29:26.941Z,67.40
2019-03-06T10:30:26.821Z,66.48
2019-03-06T10:31:26.799Z,66.38
2019-03-06T10:32:26.794Z,66.28
2019-03-06T10:33:26.777Z,67.40
2019-03-06T10:34:26.793Z,66.38
2019-03-06T10:35:26.763Z,66.07
2019-03-06T10:36:26.745Z,68.12
2019-03-06T10:37:26.742Z,68.63
2019-03-06T10:38:26.727Z,67.60
2019-03-06T10:39:26.735Z,67.60
2019-03-06T10:40:26.704Z,66.48
2019-03-06T10:41:26.693Z,67.91
2019-03-06T10:42:26.694Z,66.07
2019-03-06T10:43:26.673Z,67.60
2019-03-06T10:44:29.941Z,66.89
2019-03-06T10:45:26.667Z,67.71
2019-03-06T10:46:26.665Z,68.12
2019-03-06T10:47:26.639Z,66.28
2019-03-06T10:48:26.614Z,68.22
2019-03-06T10:49:26.612Z,67.71
2019-03-06T10:50:28.006Z,67.33
2019-03-06T10:51:27.587Z,67.54
2019-03-06T10:52:26.577Z,67.74
2019-03-06T10:53:26.568Z,68.15
2019-03-06T10:54:26.571Z,68.05
2019-03-06T10:55:26.585Z,69.27
2019-03-06T10:56:26.536Z,67.94
2019-03-06T10:57:26.523Z,67.91
2019-03-06T10:58:26.511Z,67.84
2019-03-06T10:59:26.507Z,67.74
2019-03-06T11:00:26.509Z,67.30
2019-03-06T11:01:26.484Z,66.48
2019-03-06T11:02:26.471Z,66.20
2019-03-06T11:03:26.476Z,66.48
2019-03-06T11:04:26.447Z,66.38
2019-03-06T11:05:26.460Z,66.58
2019-03-06T11:06:26.432Z,67.40
2019-03-06T11:07:26.415Z,67.50
2019-03-06T11:08:26.406Z,66.17
2019-03-06T11:09:26.399Z,67.40
2019-03-06T11:10:26.829Z,66.58
2019-03-06T11:11:26.400Z,65.87
2019-03-06T11:12:26.364Z,66.48
2019-03-06T11:13:26.357Z,66.58
2019-03-06T11:14:26.347Z,66.78
2019-03-06T11:15:26.336Z,67.50
2019-03-06T11:16:26.338Z,67.81
2019-03-06T11:17:26.315Z,67.81
2019-03-06T11:18:26.312Z,66.07
2019-03-06T11:19:26.290Z,67.81
2019-03-06T11:20:26.297Z,67.19
2019-03-06T11:21:26.336Z,66.38
2019-03-06T11:22:26.263Z,67.81
2019-03-06T11:23:26.252Z,66.28
2019-03-06T11:24:26.234Z,66.07
2019-03-06T11:25:26.291Z,68.32
2019-03-06T11:26:26.247Z,66.17
2019-03-06T11:27:26.222Z,66.25
2019-03-06T11:28:26.189Z,66.75
2019-03-06T11:29:26.210Z,66.35
2019-03-06T11:30:26.201Z,66.55
2019-03-06T11:31:26.160Z,66.45
2019-03-06T11:32:26.158Z,65.02
2019-03-06T11:33:26.137Z,66.14
2019-03-06T11:34:26.135Z,66.55
2019-03-06T11:35:26.121Z,66.14
2019-03-06T11:36:26.129Z,66.55
2019-03-06T11:37:26.097Z,67.68
2019-03-06T11:38:26.089Z,66.25
2019-03-06T11:39:26.075Z,66.45
2019-03-06T11:40:26.100Z,65.33
2019-03-06T11:41:26.088Z,65.63
2019-03-06T11:42:26.047Z,66.25
2019-03-06T11:43:26.034Z,65.33
2019-03-06T11:44:26.023Z,66.45
2019-03-06T11:45:26.022Z,64.20
2019-03-06T11:46:26.023Z,64.30
2019-03-06T11:47:25.991Z,65.02
2019-03-06T11:48:25.983Z,64.30
2019-03-06T11:49:25.968Z,63.45
2019-03-06T11:50:25.978Z,65.30
2019-03-06T11:51:25.968Z,65.30
2019-03-06T11:52:25.941Z,65.84
2019-03-06T11:53:25.934Z,65.40
2019-03-06T11:54:25.919Z,66.01
2019-03-06T11:55:25.906Z,65.30
2019-03-06T11:56:25.937Z,64.07
2019-03-06T11:57:25.897Z,64.07
2019-03-06T11:58:25.873Z,65.70
2019-03-06T11:59:25.864Z,65.19
2019-03-06T12:00:25.852Z,66.35
2019-03-06T12:01:25.863Z,64.00
2019-03-06T12:02:25.831Z,65.94
2019-03-06T12:03:25.821Z,64.61
2019-03-06T12:04:25.809Z,65.22
2019-03-06T12:05:25.803Z,65.02
2019-03-06T12:06:25.827Z,65.91
2019-03-06T12:07:25.777Z,67.07
2019-03-06T12:08:25.768Z,67.27
2019-03-06T12:09:25.784Z,67.16
2019-03-06T12:10:25.747Z,67.88
2019-03-06T12:11:25.764Z,67.44
2019-03-06T12:12:25.737Z,66.35
2019-03-06T12:13:25.716Z,66.31
2019-03-06T12:14:25.709Z,66.93
2019-03-06T12:15:25.726Z,66.21
2019-03-06T12:16:25.722Z,65.98
2019-03-06T12:17:25.671Z,65.47
2019-03-06T12:18:25.668Z,66.39
2019-03-06T12:19:25.693Z,66.08
2019-03-06T12:20:25.647Z,66.42
2019-03-06T12:21:25.671Z,65.57
2019-03-06T12:22:25.631Z,66.08
2019-03-06T12:23:25.608Z,65.88
2019-03-06T12:24:25.599Z,66.28
2019-03-06T12:25:25.602Z,66.28
2019-03-06T12:26:25.604Z,66.18
2019-03-06T12:27:25.569Z,65.26
2019-03-06T12:28:25.570Z,66.49
2019-03-06T12:29:25.556Z,65.67
2019-03-06T12:30:25.538Z,64.96
2019-03-06T12:31:25.548Z,66.28
2019-03-06T12:32:27.190Z,65.64
2019-03-06T12:33:25.580Z,66.36
2019-03-06T12:34:25.523Z,64.04
2019-03-06T12:35:25.506Z,65.34
2019-03-06T12:36:25.469Z,65.26
2019-03-06T12:37:25.480Z,64.22
2019-03-06T12:38:25.477Z,64.83
2019-03-06T12:39:25.456Z,64.52
2019-03-06T12:40:25.447Z,64.22
2019-03-06T12:41:25.425Z,63.70
2019-03-06T12:42:25.426Z,64.31
2019-03-06T12:43:25.397Z,64.42
2019-03-06T12:44:25.382Z,64.83
2019-03-06T12:45:27.298Z,64.11
2019-03-06T12:46:25.364Z,64.72
2019-03-06T12:47:25.370Z,65.03
2019-03-06T12:48:25.341Z,65.34
2019-03-06T12:49:25.342Z,64.11
2019-03-06T12:50:25.331Z,63.90
2019-03-06T12:51:25.310Z,65.03
2019-03-06T12:52:25.318Z,65.44